sensor_id;sensor_type;location;lat;lon;timestamp;P1;durP1;ratioP1;P2;durP2;ratioP2
67685;SDS011;54469;52.090;4.312;2022-07-29T00:00:03;3;;;0.8;;
67685;SDS011;54469;52.090;4.312;2022-07-29T00:05:03;3;;;0.8;;
67685;SDS011;54469;52.090;4.312;2022-07-29T00:10:03;3;;;0.8;;
67685;SDS011;54469;52.090;4.312;2022-07-29T00:15:03;5;;;1.1;;
67685;SDS011;54469;52.090;4.312;2022-07-29T00:20:04;2;;;0.7;;
67685;SDS011;54469;52.090;4.312;2022-07-29T00:25:03;4.2;;;1.2;;
67685;SDS011;54469;52.090;4.312;2022-07-29T00:30:04;4.2;;;1.2;;
67685;SDS011;54469;52.090;4.312;2022-07-29T00:35:03;4.2;;;1.2;;
67685;SDS011;54469;52.090;4.312;2022-07-29T00:40:03;4.2;;;1.2;;
67685;SDS011;54469;52.090;4.312;2022-07-29T00:45:03;4.2;;;1.2;;
67685;SDS011;54469;52.090;4.312;2022-07-29T00:50:04;4.2;;;1.2;;
67685;SDS011;54469;52.090;4.312;2022-07-29T00:55:04;4.2;;;1.2;;
67685;SDS011;54469;52.090;4.312;2022-07-29T01:00:03;1.5;;;0.8;;
67685;SDS011;54469;52.090;4.312;2022-07-29T01:05:03;1.5;;;0.8;;
67685;SDS011;54469;52.090;4.312;2022-07-29T01:10:03;3.6;;;0.9;;
67685;SDS011;54469;52.090;4.312;2022-07-29T01:15:05;6;;;1.1;;
67685;SDS011;54469;52.090;4.312;2022-07-29T01:20:06;3.1;;;0.8;;
67685;SDS011;54469;52.090;4.312;2022-07-29T01:25:09;3.1;;;0.8;;
67685;SDS011;54469;52.090;4.312;2022-07-29T01:30:04;3.1;;;0.8;;
67685;SDS011;54469;52.090;4.312;2022-07-29T01:35:04;3.1;;;0.8;;
67685;SDS011;54469;52.090;4.312;2022-07-29T01:40:03;3.1;;;0.8;;
67685;SDS011;54469;52.090;4.312;2022-07-29T01:45:06;3.1;;;0.8;;
67685;SDS011;54469;52.090;4.312;2022-07-29T01:50:04;3.1;;;0.8;;
67685;SDS011;54469;52.090;4.312;2022-07-29T01:55:04;3.1;;;0.8;;
67685;SDS011;54469;52.090;4.312;2022-07-29T02:00:04;3.1;;;0.8;;
67685;SDS011;54469;52.090;4.312;2022-07-29T02:05:04;3.1;;;0.8;;
67685;SDS011;54469;52.090;4.312;2022-07-29T02:10:04;3.1;;;0.8;;
67685;SDS011;54469;52.090;4.312;2022-07-29T02:15:04;3.1;;;0.8;;
67685;SDS011;54469;52.090;4.312;2022-07-29T02:20:03;3.1;;;0.8;;
67685;SDS011;54469;52.090;4.312;2022-07-29T02:25:03;3.1;;;0.8;;
67685;SDS011;54469;52.090;4.312;2022-07-29T02:30:03;3.1;;;0.8;;
67685;SDS011;54469;52.090;4.312;2022-07-29T02:35:03;3.1;;;0.8;;
67685;SDS011;54469;52.090;4.312;2022-07-29T02:40:03;3.1;;;0.8;;
67685;SDS011;54469;52.090;4.312;2022-07-29T02:45:04;3.1;;;0.8;;
67685;SDS011;54469;52.090;4.312;2022-07-29T02:50:04;3.1;;;0.8;;
67685;SDS011;54469;52.090;4.312;2022-07-29T02:55:06;3.1;;;0.8;;
67685;SDS011;54469;52.090;4.312;2022-07-29T03:00:04;3.1;;;0.8;;
67685;SDS011;54469;52.090;4.312;2022-07-29T03:05:04;3.1;;;0.8;;
67685;SDS011;54469;52.090;4.312;2022-07-29T03:10:04;5.9;;;1;;
67685;SDS011;54469;52.090;4.312;2022-07-29T03:15:04;5.9;;;1;;
67685;SDS011;54469;52.090;4.312;2022-07-29T03:20:03;3.1;;;1.1;;
67685;SDS011;54469;52.090;4.312;2022-07-29T03:25:07;3.1;;;1.1;;
67685;SDS011;54469;52.090;4.312;2022-07-29T03:30:04;3.1;;;1.1;;
67685;SDS011;54469;52.090;4.312;2022-07-29T03:35:04;3.1;;;1.1;;
67685;SDS011;54469;52.090;4.312;2022-07-29T03:40:04;3.1;;;1.1;;
67685;SDS011;54469;52.090;4.312;2022-07-29T03:45:05;3.1;;;1.1;;
67685;SDS011;54469;52.090;4.312;2022-07-29T03:50:05;3.1;;;1.1;;
67685;SDS011;54469;52.090;4.312;2022-07-29T03:55:04;3.1;;;1.1;;
67685;SDS011;54469;52.090;4.312;2022-07-29T04:00:04;3.1;;;1.1;;
67685;SDS011;54469;52.090;4.312;2022-07-29T04:05:03;3.1;;;1.1;;
67685;SDS011;54469;52.090;4.312;2022-07-29T04:10:04;11.8;;;1.3;;
67685;SDS011;54469;52.090;4.312;2022-07-29T04:15:03;2.3;;;1.1;;
67685;SDS011;54469;52.090;4.312;2022-07-29T04:20:03;2.3;;;1.1;;
67685;SDS011;54469;52.090;4.312;2022-07-29T04:25:03;2.3;;;1.1;;
67685;SDS011;54469;52.090;4.312;2022-07-29T04:30:03;5.3;;;1.4;;
67685;SDS011;54469;52.090;4.312;2022-07-29T04:35:03;5.3;;;1.4;;
67685;SDS011;54469;52.090;4.312;2022-07-29T04:40:03;5.3;;;1.4;;
67685;SDS011;54469;52.090;4.312;2022-07-29T04:45:03;5.3;;;1.4;;
67685;SDS011;54469;52.090;4.312;2022-07-29T04:50:03;3.1;;;1.5;;
67685;SDS011;54469;52.090;4.312;2022-07-29T04:55:04;3.1;;;1.5;;
67685;SDS011;54469;52.090;4.312;2022-07-29T05:00:04;5.5;;;1.4;;
67685;SDS011;54469;52.090;4.312;2022-07-29T05:05:03;5.5;;;1.4;;
67685;SDS011;54469;52.090;4.312;2022-07-29T05:10:04;5.5;;;1.4;;
67685;SDS011;54469;52.090;4.312;2022-07-29T05:15:03;5.5;;;1.4;;
67685;SDS011;54469;52.090;4.312;2022-07-29T05:20:03;5.5;;;1.4;;
67685;SDS011;54469;52.090;4.312;2022-07-29T05:25:03;3.1;;;1.5;;
67685;SDS011;54469;52.090;4.312;2022-07-29T05:30:03;3.1;;;1.5;;
67685;SDS011;54469;52.090;4.312;2022-07-29T05:35:03;3.1;;;1.5;;
67685;SDS011;54469;52.090;4.312;2022-07-29T05:40:04;6.4;;;1.5;;
67685;SDS011;54469;52.090;4.312;2022-07-29T05:45:03;6.4;;;1.5;;
67685;SDS011;54469;52.090;4.312;2022-07-29T05:50:03;4.2;;;1.5;;
67685;SDS011;54469;52.090;4.312;2022-07-29T05:55:03;4.2;;;1.5;;
67685;SDS011;54469;52.090;4.312;2022-07-29T06:00:04;4.2;;;1.5;;
67685;SDS011;54469;52.090;4.312;2022-07-29T06:05:03;4.2;;;1.5;;
67685;SDS011;54469;52.090;4.312;2022-07-29T06:10:03;4.2;;;1.5;;
67685;SDS011;54469;52.090;4.312;2022-07-29T06:15:04;4.2;;;1.5;;
67685;SDS011;54469;52.090;4.312;2022-07-29T06:20:04;4.2;;;1.5;;
67685;SDS011;54469;52.090;4.312;2022-07-29T06:25:03;4.2;;;1.5;;
67685;SDS011;54469;52.090;4.312;2022-07-29T06:30:04;6.4;;;1;;
67685;SDS011;54469;52.090;4.312;2022-07-29T06:35:03;12.3;;;1.9;;
67685;SDS011;54469;52.090;4.312;2022-07-29T06:40:03;2.8;;;1.1;;
67685;SDS011;54469;52.090;4.312;2022-07-29T06:45:03;6.5;;;1.3;;
67685;SDS011;54469;52.090;4.312;2022-07-29T06:50:04;2.7;;;1.2;;
67685;SDS011;54469;52.090;4.312;2022-07-29T06:55:03;5.4;;;1.4;;
67685;SDS011;54469;52.090;4.312;2022-07-29T07:00:04;5.4;;;1.4;;
67685;SDS011;54469;52.090;4.312;2022-07-29T07:05:03;5.4;;;1.4;;
67685;SDS011;54469;52.090;4.312;2022-07-29T07:10:03;2.6;;;1.4;;
67685;SDS011;54469;52.090;4.312;2022-07-29T07:15:03;5.3;;;1.6;;
67685;SDS011;54469;52.090;4.312;2022-07-29T07:20:03;5.3;;;1.6;;
67685;SDS011;54469;52.090;4.312;2022-07-29T07:25:03;5.3;;;1.6;;
67685;SDS011;54469;52.090;4.312;2022-07-29T07:30:04;5.3;;;1.6;;
67685;SDS011;54469;52.090;4.312;2022-07-29T07:35:03;5.3;;;1.6;;
67685;SDS011;54469;52.090;4.312;2022-07-29T07:40:03;5.3;;;1.6;;
67685;SDS011;54469;52.090;4.312;2022-07-29T07:45:04;5.3;;;1.6;;
67685;SDS011;54469;52.090;4.312;2022-07-29T07:50:03;5.3;;;1.6;;
67685;SDS011;54469;52.090;4.312;2022-07-29T07:55:03;5.3;;;1.6;;
67685;SDS011;54469;52.090;4.312;2022-07-29T08:00:03;5.3;;;1.6;;
67685;SDS011;54469;52.090;4.312;2022-07-29T08:05:04;5.3;;;1.6;;
67685;SDS011;54469;52.090;4.312;2022-07-29T08:10:03;5.3;;;1.6;;
67685;SDS011;54469;52.090;4.312;2022-07-29T08:15:03;5.3;;;1.6;;
67685;SDS011;54469;52.090;4.312;2022-07-29T08:20:03;5.3;;;1.6;;
67685;SDS011;54469;52.090;4.312;2022-07-29T08:25:04;5.3;;;1.6;;
67685;SDS011;54469;52.090;4.312;2022-07-29T08:30:03;5.3;;;1.6;;
67685;SDS011;54469;52.090;4.312;2022-07-29T08:35:03;5.3;;;1.6;;
67685;SDS011;54469;52.090;4.312;2022-07-29T08:40:03;5.3;;;1.6;;
67685;SDS011;54469;52.090;4.312;2022-07-29T08:45:03;5.3;;;1.6;;
67685;SDS011;54469;52.090;4.312;2022-07-29T08:50:03;5.3;;;1.6;;
67685;SDS011;54469;52.090;4.312;2022-07-29T08:55:04;5.3;;;1.6;;
67685;SDS011;54469;52.090;4.312;2022-07-29T09:00:04;5.3;;;1.6;;
67685;SDS011;54469;52.090;4.312;2022-07-29T09:05:03;6;;;3.2;;
67685;SDS011;54469;52.090;4.312;2022-07-29T09:10:04;6;;;3.2;;
67685;SDS011;54469;52.090;4.312;2022-07-29T09:15:03;6;;;3.2;;
67685;SDS011;54469;52.090;4.312;2022-07-29T09:20:08;3.46667;;;2.33333;;
67685;SDS011;54469;52.090;4.312;2022-07-29T09:25:03;5.8;;;2.73333;;
67685;SDS011;54469;52.090;4.312;2022-07-29T09:30:04;11.4;;;4.7;;
67685;SDS011;54469;52.090;4.312;2022-07-29T09:35:14;6.5;;;4.5;;
67685;SDS011;54469;52.090;4.312;2022-07-29T09:40:11;6.5;;;4.5;;
67685;SDS011;54469;52.090;4.312;2022-07-29T09:45:03;6.7;;;6.1;;
67685;SDS011;54469;52.090;4.312;2022-07-29T09:50:04;9.4;;;7.2;;
67685;SDS011;54469;52.090;4.312;2022-07-29T09:55:04;9.4;;;7.2;;
67685;SDS011;54469;52.090;4.312;2022-07-29T10:00:04;10.3;;;9.4;;
67685;SDS011;54469;52.090;4.312;2022-07-29T10:05:03;12.5;;;11.2;;
67685;SDS011;54469;52.090;4.312;2022-07-29T10:10:03;14;;;12.7;;
67685;SDS011;54469;52.090;4.312;2022-07-29T10:15:03;15.2;;;13.8;;
67685;SDS011;54469;52.090;4.312;2022-07-29T10:20:03;15.2;;;13.8;;
67685;SDS011;54469;52.090;4.312;2022-07-29T10:25:03;38.5;;;28.7;;
67685;SDS011;54469;52.090;4.312;2022-07-29T10:30:04;38.5;;;28.7;;
67685;SDS011;54469;52.090;4.312;2022-07-29T10:35:21;18.899999999999995;;;17.2;;
67685;SDS011;54469;52.090;4.312;2022-07-29T10:40:05;18.899999999999995;;;17.2;;
67685;SDS011;54469;52.090;4.312;2022-07-29T10:45:03;20.399999999999995;;;18.7;;
67685;SDS011;54469;52.090;4.312;2022-07-29T10:50:04;20.399999999999995;;;18.7;;
67685;SDS011;54469;52.090;4.312;2022-07-29T10:55:03;20.399999999999995;;;18.7;;
67685;SDS011;54469;52.090;4.312;2022-07-29T11:00:25;18.7;;;17.2;;
67685;SDS011;54469;52.090;4.312;2022-07-29T11:05:03;17.2;;;15.8;;
67685;SDS011;54469;52.090;4.312;2022-07-29T11:10:34;15;;;13.7;;
67685;SDS011;54469;52.090;4.312;2022-07-29T11:15:03;12.8;;;11.5;;
67685;SDS011;54469;52.090;4.312;2022-07-29T11:20:37;9.5;;;8.699999999999998;;
67685;SDS011;54469;52.090;4.312;2022-07-29T11:25:18;9.699999999999998;;;6.6;;
67685;SDS011;54469;52.090;4.312;2022-07-29T11:30:03;10.6;;;5;;
67685;SDS011;54469;52.090;4.312;2022-07-29T11:35:11;5.4;;;2.93333;;
67685;SDS011;54469;52.090;4.312;2022-07-29T11:40:18;5.4;;;2.93333;;
67685;SDS011;54469;52.090;4.312;2022-07-29T11:45:04;5.4;;;2.93333;;
67685;SDS011;54469;52.090;4.312;2022-07-29T11:50:04;5.4;;;2.93333;;
67685;SDS011;54469;52.090;4.312;2022-07-29T11:55:04;8.199999999999998;;;3.9;;
67685;SDS011;54469;52.090;4.312;2022-07-29T12:00:03;8.300000000000002;;;2.2;;
67685;SDS011;54469;52.090;4.312;2022-07-29T12:05:03;8.300000000000002;;;2.2;;
67685;SDS011;54469;52.090;4.312;2022-07-29T12:10:03;8.300000000000002;;;2.2;;
67685;SDS011;54469;52.090;4.312;2022-07-29T12:15:11;5.5;;;2.1;;
67685;SDS011;54469;52.090;4.312;2022-07-29T12:20:03;5.5;;;2.1;;
67685;SDS011;54469;52.090;4.312;2022-07-29T12:25:03;8.199999999999998;;;2.5;;
67685;SDS011;54469;52.090;4.312;2022-07-29T12:30:03;5.3;;;2.5;;
67685;SDS011;54469;52.090;4.312;2022-07-29T12:35:04;5.3;;;2.5;;
67685;SDS011;54469;52.090;4.312;2022-07-29T12:40:04;8.800000000000002;;;2.4;;
67685;SDS011;54469;52.090;4.312;2022-07-29T12:45:04;8.800000000000002;;;2.4;;
67685;SDS011;54469;52.090;4.312;2022-07-29T12:50:07;8.800000000000002;;;2.4;;
67685;SDS011;54469;52.090;4.312;2022-07-29T12:55:03;6.3;;;2.4;;
67685;SDS011;54469;52.090;4.312;2022-07-29T13:00:04;6.3;;;2.4;;
67685;SDS011;54469;52.090;4.312;2022-07-29T13:05:04;6.3;;;2.4;;
67685;SDS011;54469;52.090;4.312;2022-07-29T13:10:12;6.3;;;2.4;;
67685;SDS011;54469;52.090;4.312;2022-07-29T13:15:12;6.3;;;2.4;;
67685;SDS011;54469;52.090;4.312;2022-07-29T13:20:05;6.3;;;2.4;;
67685;SDS011;54469;52.090;4.312;2022-07-29T13:25:03;6.3;;;2.4;;
67685;SDS011;54469;52.090;4.312;2022-07-29T13:30:03;6.3;;;2.4;;
67685;SDS011;54469;52.090;4.312;2022-07-29T13:35:04;6.3;;;2.4;;
67685;SDS011;54469;52.090;4.312;2022-07-29T13:40:02;6.3;;;2.4;;
67685;SDS011;54469;52.090;4.312;2022-07-29T13:45:03;3.6;;;1.6;;
67685;SDS011;54469;52.090;4.312;2022-07-29T13:50:04;5.7;;;2.2;;
67685;SDS011;54469;52.090;4.312;2022-07-29T13:55:03;5.7;;;2.2;;
67685;SDS011;54469;52.090;4.312;2022-07-29T14:00:03;5.7;;;2.2;;
67685;SDS011;54469;52.090;4.312;2022-07-29T14:05:03;7.9;;;2.7;;
67685;SDS011;54469;52.090;4.312;2022-07-29T14:10:04;7.9;;;2.7;;
67685;SDS011;54469;52.090;4.312;2022-07-29T14:15:03;7.9;;;2.7;;
67685;SDS011;54469;52.090;4.312;2022-07-29T14:20:04;7.9;;;2.7;;
67685;SDS011;54469;52.090;4.312;2022-07-29T14:25:03;10.4;;;1.9;;
67685;SDS011;54469;52.090;4.312;2022-07-29T14:30:03;7;;;2.1;;
67685;SDS011;54469;52.090;4.312;2022-07-29T14:35:03;9.5;;;2.7;;
67685;SDS011;54469;52.090;4.312;2022-07-29T14:40:03;9.5;;;2.7;;
67685;SDS011;54469;52.090;4.312;2022-07-29T14:45:04;9.5;;;2.7;;
67685;SDS011;54469;52.090;4.312;2022-07-29T14:50:04;7.5;;;1.7;;
67685;SDS011;54469;52.090;4.312;2022-07-29T14:55:03;10.1;;;1.8;;
67685;SDS011;54469;52.090;4.312;2022-07-29T15:00:03;10.1;;;1.8;;
67685;SDS011;54469;52.090;4.312;2022-07-29T15:05:03;7;;;1.9;;
67685;SDS011;54469;52.090;4.312;2022-07-29T15:10:03;9.199999999999998;;;2.1;;
67685;SDS011;54469;52.090;4.312;2022-07-29T15:15:03;9.199999999999998;;;2.1;;
67685;SDS011;54469;52.090;4.312;2022-07-29T15:20:03;6.9;;;2.2;;
67685;SDS011;54469;52.090;4.312;2022-07-29T15:25:03;9.1;;;1.9;;
67685;SDS011;54469;52.090;4.312;2022-07-29T15:30:03;9.1;;;1.9;;
67685;SDS011;54469;52.090;4.312;2022-07-29T15:35:03;9.1;;;1.9;;
67685;SDS011;54469;52.090;4.312;2022-07-29T15:40:03;9.1;;;1.9;;
67685;SDS011;54469;52.090;4.312;2022-07-29T15:45:05;9.1;;;1.9;;
67685;SDS011;54469;52.090;4.312;2022-07-29T15:50:04;9.1;;;1.9;;
67685;SDS011;54469;52.090;4.312;2022-07-29T15:55:04;9.1;;;1.9;;
67685;SDS011;54469;52.090;4.312;2022-07-29T16:00:08;9.1;;;1.9;;
67685;SDS011;54469;52.090;4.312;2022-07-29T16:05:04;9.1;;;1.9;;
67685;SDS011;54469;52.090;4.312;2022-07-29T16:10:03;9.1;;;1.9;;
67685;SDS011;54469;52.090;4.312;2022-07-29T16:15:03;9.1;;;1.9;;
67685;SDS011;54469;52.090;4.312;2022-07-29T16:20:04;9.1;;;1.9;;
67685;SDS011;54469;52.090;4.312;2022-07-29T16:25:03;10.1;;;3.8;;
67685;SDS011;54469;52.090;4.312;2022-07-29T16:30:04;10.1;;;3.8;;
67685;SDS011;54469;52.090;4.312;2022-07-29T16:35:04;8.199999999999998;;;2;;
67685;SDS011;54469;52.090;4.312;2022-07-29T16:40:04;12.1;;;2.1;;
67685;SDS011;54469;52.090;4.312;2022-07-29T16:45:04;12.1;;;2.1;;
67685;SDS011;54469;52.090;4.312;2022-07-29T16:50:03;12.1;;;2.1;;
67685;SDS011;54469;52.090;4.312;2022-07-29T16:55:04;12.1;;;2.1;;
67685;SDS011;54469;52.090;4.312;2022-07-29T17:00:08;9.4;;;1.8;;
67685;SDS011;54469;52.090;4.312;2022-07-29T17:05:03;13.8;;;2;;
67685;SDS011;54469;52.090;4.312;2022-07-29T17:10:04;10.5;;;2.1;;
67685;SDS011;54469;52.090;4.312;2022-07-29T17:15:03;8.199999999999998;;;1.7;;
67685;SDS011;54469;52.090;4.312;2022-07-29T17:20:04;8.199999999999998;;;1.7;;
67685;SDS011;54469;52.090;4.312;2022-07-29T17:25:03;10.4;;;1.9;;
67685;SDS011;54469;52.090;4.312;2022-07-29T17:30:04;10.4;;;1.9;;
67685;SDS011;54469;52.090;4.312;2022-07-29T17:35:03;10.4;;;1.9;;
67685;SDS011;54469;52.090;4.312;2022-07-29T17:40:04;10.4;;;1.9;;
67685;SDS011;54469;52.090;4.312;2022-07-29T17:45:03;10.4;;;1.9;;
67685;SDS011;54469;52.090;4.312;2022-07-29T17:50:04;10.4;;;1.9;;
67685;SDS011;54469;52.090;4.312;2022-07-29T17:55:03;8.300000000000002;;;2;;
67685;SDS011;54469;52.090;4.312;2022-07-29T18:00:04;8.300000000000002;;;2;;
67685;SDS011;54469;52.090;4.312;2022-07-29T18:05:04;8.300000000000002;;;2;;
67685;SDS011;54469;52.090;4.312;2022-07-29T18:10:03;8.300000000000002;;;2;;
67685;SDS011;54469;52.090;4.312;2022-07-29T18:15:04;8.300000000000002;;;2;;
67685;SDS011;54469;52.090;4.312;2022-07-29T18:20:03;8.300000000000002;;;2;;
67685;SDS011;54469;52.090;4.312;2022-07-29T18:25:02;6.2;;;1.9;;
67685;SDS011;54469;52.090;4.312;2022-07-29T18:30:03;10.6;;;2.2;;
67685;SDS011;54469;52.090;4.312;2022-07-29T18:35:03;21.8;;;2.8;;
67685;SDS011;54469;52.090;4.312;2022-07-29T18:40:03;9.199999999999998;;;2;;
67685;SDS011;54469;52.090;4.312;2022-07-29T18:45:03;14.3;;;2.6;;
67685;SDS011;54469;52.090;4.312;2022-07-29T18:50:04;9.300000000000002;;;2.5;;
67685;SDS011;54469;52.090;4.312;2022-07-29T18:55:03;9.300000000000002;;;2.5;;
67685;SDS011;54469;52.090;4.312;2022-07-29T19:00:04;9.300000000000002;;;2.5;;
67685;SDS011;54469;52.090;4.312;2022-07-29T19:05:03;9.300000000000002;;;2.5;;
67685;SDS011;54469;52.090;4.312;2022-07-29T19:10:03;12.1;;;3.2;;
67685;SDS011;54469;52.090;4.312;2022-07-29T19:15:02;12.1;;;3.2;;
67685;SDS011;54469;52.090;4.312;2022-07-29T19:20:03;12.1;;;3.2;;
67685;SDS011;54469;52.090;4.312;2022-07-29T19:25:03;12.1;;;3.2;;
67685;SDS011;54469;52.090;4.312;2022-07-29T19:30:04;9;;;3.5;;
67685;SDS011;54469;52.090;4.312;2022-07-29T19:35:03;13.3;;;4.6;;
67685;SDS011;54469;52.090;4.312;2022-07-29T19:40:03;9.199999999999998;;;2.4;;
67685;SDS011;54469;52.090;4.312;2022-07-29T19:45:03;9.199999999999998;;;2.4;;
67685;SDS011;54469;52.090;4.312;2022-07-29T19:50:03;14.6;;;4.6;;
67685;SDS011;54469;52.090;4.312;2022-07-29T19:55:02;19.3;;;4.3;;
67685;SDS011;54469;52.090;4.312;2022-07-29T20:00:03;12.4;;;4.1;;
67685;SDS011;54469;52.090;4.312;2022-07-29T20:05:03;11.2;;;2.9;;
67685;SDS011;54469;52.090;4.312;2022-07-29T20:10:03;11.2;;;2.9;;
67685;SDS011;54469;52.090;4.312;2022-07-29T20:15:03;6.7;;;2.3;;
67685;SDS011;54469;52.090;4.312;2022-07-29T20:20:03;6.7;;;2.3;;
67685;SDS011;54469;52.090;4.312;2022-07-29T20:25:04;6.7;;;2.3;;
67685;SDS011;54469;52.090;4.312;2022-07-29T20:30:03;11.1;;;1.9;;
67685;SDS011;54469;52.090;4.312;2022-07-29T20:35:03;11.1;;;1.9;;
67685;SDS011;54469;52.090;4.312;2022-07-29T20:40:03;8.9;;;2.2;;
67685;SDS011;54469;52.090;4.312;2022-07-29T20:45:03;15.2;;;2.6;;
67685;SDS011;54469;52.090;4.312;2022-07-29T20:50:03;8.699999999999998;;;2.6;;
67685;SDS011;54469;52.090;4.312;2022-07-29T20:55:03;8.699999999999998;;;2.6;;
67685;SDS011;54469;52.090;4.312;2022-07-29T21:00:03;8.699999999999998;;;2.6;;
67685;SDS011;54469;52.090;4.312;2022-07-29T21:05:03;8.699999999999998;;;2.6;;
67685;SDS011;54469;52.090;4.312;2022-07-29T21:10:03;8.699999999999998;;;2.6;;
67685;SDS011;54469;52.090;4.312;2022-07-29T21:15:04;8.699999999999998;;;2.6;;
67685;SDS011;54469;52.090;4.312;2022-07-29T21:20:03;8.699999999999998;;;2.6;;
67685;SDS011;54469;52.090;4.312;2022-07-29T21:25:03;11;;;2.9;;
67685;SDS011;54469;52.090;4.312;2022-07-29T21:30:03;11;;;2.9;;
67685;SDS011;54469;52.090;4.312;2022-07-29T21:35:03;8.6;;;3.3;;
67685;SDS011;54469;52.090;4.312;2022-07-29T21:40:03;8.6;;;3.3;;
67685;SDS011;54469;52.090;4.312;2022-07-29T21:45:03;9.800000000000002;;;2.1;;
67685;SDS011;54469;52.090;4.312;2022-07-29T21:50:03;13.3;;;5.2;;
67685;SDS011;54469;52.090;4.312;2022-07-29T21:55:03;8.800000000000002;;;3.2;;
67685;SDS011;54469;52.090;4.312;2022-07-29T22:00:03;12.6;;;3.2;;
67685;SDS011;54469;52.090;4.312;2022-07-29T22:05:03;10.1;;;2.5;;
67685;SDS011;54469;52.090;4.312;2022-07-29T22:10:03;7.1;;;2.5;;
67685;SDS011;54469;52.090;4.312;2022-07-29T22:15:03;7.1;;;2.5;;
67685;SDS011;54469;52.090;4.312;2022-07-29T22:20:03;9.300000000000002;;;2.5;;
67685;SDS011;54469;52.090;4.312;2022-07-29T22:25:04;9.300000000000002;;;2.5;;
67685;SDS011;54469;52.090;4.312;2022-07-29T22:30:03;9.300000000000002;;;2.5;;
67685;SDS011;54469;52.090;4.312;2022-07-29T22:35:03;9.300000000000002;;;2.5;;
67685;SDS011;54469;52.090;4.312;2022-07-29T22:40:04;6.8;;;2.3;;
67685;SDS011;54469;52.090;4.312;2022-07-29T22:45:03;11.5;;;2.7;;
67685;SDS011;54469;52.090;4.312;2022-07-29T22:50:03;11.5;;;2.7;;
67685;SDS011;54469;52.090;4.312;2022-07-29T22:55:03;8.9;;;2.1;;
67685;SDS011;54469;52.090;4.312;2022-07-29T23:00:04;8.9;;;2.1;;
67685;SDS011;54469;52.090;4.312;2022-07-29T23:05:04;5.6;;;2;;
67685;SDS011;54469;52.090;4.312;2022-07-29T23:10:03;5.6;;;2;;
67685;SDS011;54469;52.090;4.312;2022-07-29T23:15:03;9.4;;;2.2;;
67685;SDS011;54469;52.090;4.312;2022-07-29T23:20:04;9.4;;;2.2;;
67685;SDS011;54469;52.090;4.312;2022-07-29T23:25:03;9.4;;;2.2;;
67685;SDS011;54469;52.090;4.312;2022-07-29T23:30:03;9.4;;;2.2;;
67685;SDS011;54469;52.090;4.312;2022-07-29T23:35:04;9.4;;;2.2;;
67685;SDS011;54469;52.090;4.312;2022-07-29T23:40:04;9.4;;;2.2;;
67685;SDS011;54469;52.090;4.312;2022-07-29T23:45:03;6.9;;;2.4;;
67685;SDS011;54469;52.090;4.312;2022-07-29T23:50:03;6.9;;;2.4;;
67685;SDS011;54469;52.090;4.312;2022-07-29T23:55:03;11.1;;;3.2;;
